sensor_id;sensor_type;location;lat;lon;timestamp;P1;durP1;ratioP1;P2;durP2;ratioP2
75061;SDS011;63641;46.526;24.612;2022-12-07T00:01:14;29.25;;;21.60;;
75061;SDS011;63641;46.526;24.612;2022-12-07T00:03:55;36.40;;;26.05;;
75061;SDS011;63641;46.526;24.612;2022-12-07T00:06:26;42.58;;;28.90;;
75061;SDS011;63641;46.526;24.612;2022-12-07T00:08:53;48.33;;;32.50;;
75061;SDS011;63641;46.526;24.612;2022-12-07T00:11:21;32.78;;;22.85;;
75061;SDS011;63641;46.526;24.612;2022-12-07T00:13:52;32.05;;;23.92;;
75061;SDS011;63641;46.526;24.612;2022-12-07T00:16:24;30.92;;;23.38;;
75061;SDS011;63641;46.526;24.612;2022-12-07T00:18:53;29.60;;;21.63;;
75061;SDS011;63641;46.526;24.612;2022-12-07T00:21:33;33.08;;;23.13;;
75061;SDS011;63641;46.526;24.612;2022-12-07T00:24:03;30.08;;;22.65;;
75061;SDS011;63641;46.526;24.612;2022-12-07T00:26:34;26.58;;;21.10;;
75061;SDS011;63641;46.526;24.612;2022-12-07T00:29:07;27.85;;;20.60;;
75061;SDS011;63641;46.526;24.612;2022-12-07T00:31:40;29.58;;;21.40;;
75061;SDS011;63641;46.526;24.612;2022-12-07T00:34:12;30.10;;;22.52;;
75061;SDS011;63641;46.526;24.612;2022-12-07T00:36:43;24.73;;;19.50;;
75061;SDS011;63641;46.526;24.612;2022-12-07T00:39:10;24.30;;;19.40;;
75061;SDS011;63641;46.526;24.612;2022-12-07T00:41:37;24.63;;;19.05;;
75061;SDS011;63641;46.526;24.612;2022-12-07T00:44:04;23.80;;;18.73;;
75061;SDS011;63641;46.526;24.612;2022-12-07T00:46:31;26.60;;;19.95;;
75061;SDS011;63641;46.526;24.612;2022-12-07T00:48:58;23.08;;;16.65;;
75061;SDS011;63641;46.526;24.612;2022-12-07T00:51:25;27.50;;;18.55;;
75061;SDS011;63641;46.526;24.612;2022-12-07T00:53:52;24.27;;;19.40;;
75061;SDS011;63641;46.526;24.612;2022-12-07T00:56:20;26.50;;;19.98;;
75061;SDS011;63641;46.526;24.612;2022-12-07T00:58:49;22.83;;;18.88;;
75061;SDS011;63641;46.526;24.612;2022-12-07T01:01:20;25.60;;;19.42;;
75061;SDS011;63641;46.526;24.612;2022-12-07T01:03:48;26.63;;;18.70;;
75061;SDS011;63641;46.526;24.612;2022-12-07T01:06:15;25.50;;;16.95;;
75061;SDS011;63641;46.526;24.612;2022-12-07T01:08:43;24.85;;;17.08;;
75061;SDS011;63641;46.526;24.612;2022-12-07T01:11:15;25.15;;;18.17;;
75061;SDS011;63641;46.526;24.612;2022-12-07T01:13:44;29.23;;;22.83;;
75061;SDS011;63641;46.526;24.612;2022-12-07T01:16:12;39.38;;;27.08;;
75061;SDS011;63641;46.526;24.612;2022-12-07T01:18:41;33.78;;;24.30;;
75061;SDS011;63641;46.526;24.612;2022-12-07T01:21:18;30.42;;;23.27;;
75061;SDS011;63641;46.526;24.612;2022-12-07T01:23:47;28.75;;;21.63;;
75061;SDS011;63641;46.526;24.612;2022-12-07T01:26:16;25.23;;;19.92;;
75061;SDS011;63641;46.526;24.612;2022-12-07T01:28:44;30.00;;;22.02;;
75061;SDS011;63641;46.526;24.612;2022-12-07T01:31:13;25.65;;;20.65;;
75061;SDS011;63641;46.526;24.612;2022-12-07T01:33:42;28.17;;;20.52;;
75061;SDS011;63641;46.526;24.612;2022-12-07T01:36:17;24.13;;;18.98;;
75061;SDS011;63641;46.526;24.612;2022-12-07T01:38:46;25.73;;;19.60;;
75061;SDS011;63641;46.526;24.612;2022-12-07T01:41:15;25.50;;;19.20;;
75061;SDS011;63641;46.526;24.612;2022-12-07T01:46:39;28.95;;;20.35;;
75061;SDS011;63641;46.526;24.612;2022-12-07T01:49:07;23.67;;;19.83;;
75061;SDS011;63641;46.526;24.612;2022-12-07T01:51:36;26.20;;;19.70;;
75061;SDS011;63641;46.526;24.612;2022-12-07T01:54:05;26.50;;;18.17;;
75061;SDS011;63641;46.526;24.612;2022-12-07T01:56:32;23.63;;;18.13;;
75061;SDS011;63641;46.526;24.612;2022-12-07T01:58:59;29.67;;;20.67;;
75061;SDS011;63641;46.526;24.612;2022-12-07T02:01:26;24.80;;;20.15;;
75061;SDS011;63641;46.526;24.612;2022-12-07T02:03:53;21.95;;;18.00;;
75061;SDS011;63641;46.526;24.612;2022-12-07T02:06:20;25.13;;;20.48;;
75061;SDS011;63641;46.526;24.612;2022-12-07T02:08:50;33.60;;;22.45;;
75061;SDS011;63641;46.526;24.612;2022-12-07T02:11:17;29.00;;;22.67;;
75061;SDS011;63641;46.526;24.612;2022-12-07T02:13:45;31.88;;;23.92;;
75061;SDS011;63641;46.526;24.612;2022-12-07T02:40:41;24.80;;;17.88;;
75061;SDS011;63641;46.526;24.612;2022-12-07T02:46:14;23.77;;;17.05;;
75061;SDS011;63641;46.526;24.612;2022-12-07T02:48:44;19.70;;;15.52;;
75061;SDS011;63641;46.526;24.612;2022-12-07T02:51:12;18.92;;;14.05;;
75061;SDS011;63641;46.526;24.612;2022-12-07T02:53:39;15.60;;;13.13;;
75061;SDS011;63641;46.526;24.612;2022-12-07T02:56:21;17.98;;;12.20;;
75061;SDS011;63641;46.526;24.612;2022-12-07T02:58:54;10.45;;;9.20;;
75061;SDS011;63641;46.526;24.612;2022-12-07T03:12:32;8.55;;;7.13;;
75061;SDS011;63641;46.526;24.612;2022-12-07T03:15:12;7.22;;;6.50;;
75061;SDS011;63641;46.526;24.612;2022-12-07T03:17:48;8.20;;;7.03;;
75061;SDS011;63641;46.526;24.612;2022-12-07T03:20:17;8.00;;;7.15;;
75061;SDS011;63641;46.526;24.612;2022-12-07T03:22:48;7.55;;;6.50;;
75061;SDS011;63641;46.526;24.612;2022-12-07T03:25:17;8.77;;;6.70;;
75061;SDS011;63641;46.526;24.612;2022-12-07T03:30:19;7.25;;;6.55;;
75061;SDS011;63641;46.526;24.612;2022-12-07T03:32:50;7.82;;;6.68;;
75061;SDS011;63641;46.526;24.612;2022-12-07T03:35:27;8.05;;;7.25;;
75061;SDS011;63641;46.526;24.612;2022-12-07T03:38:14;7.53;;;6.72;;
75061;SDS011;63641;46.526;24.612;2022-12-07T03:40:50;7.28;;;6.30;;
75061;SDS011;63641;46.526;24.612;2022-12-07T03:43:22;7.75;;;6.75;;
75061;SDS011;63641;46.526;24.612;2022-12-07T03:45:59;7.10;;;6.07;;
75061;SDS011;63641;46.526;24.612;2022-12-07T03:48:38;7.28;;;6.57;;
75061;SDS011;63641;46.526;24.612;2022-12-07T03:57:06;7.03;;;6.07;;
75061;SDS011;63641;46.526;24.612;2022-12-07T03:59:35;7.38;;;6.68;;
75061;SDS011;63641;46.526;24.612;2022-12-07T04:02:04;7.45;;;5.97;;
75061;SDS011;63641;46.526;24.612;2022-12-07T04:04:33;8.05;;;6.20;;
75061;SDS011;63641;46.526;24.612;2022-12-07T04:07:00;6.97;;;6.25;;
75061;SDS011;63641;46.526;24.612;2022-12-07T04:09:27;8.48;;;6.60;;
75061;SDS011;63641;46.526;24.612;2022-12-07T04:11:54;7.75;;;7.05;;
75061;SDS011;63641;46.526;24.612;2022-12-07T04:14:21;6.78;;;6.15;;
75061;SDS011;63641;46.526;24.612;2022-12-07T04:16:48;6.40;;;5.80;;
75061;SDS011;63641;46.526;24.612;2022-12-07T04:19:20;6.88;;;5.88;;
75061;SDS011;63641;46.526;24.612;2022-12-07T04:21:49;6.85;;;6.15;;
75061;SDS011;63641;46.526;24.612;2022-12-07T04:24:15;7.55;;;6.85;;
75061;SDS011;63641;46.526;24.612;2022-12-07T04:26:43;7.32;;;6.55;;
75061;SDS011;63641;46.526;24.612;2022-12-07T04:29:10;7.50;;;6.70;;
75061;SDS011;63641;46.526;24.612;2022-12-07T04:31:37;7.68;;;6.93;;
75061;SDS011;63641;46.526;24.612;2022-12-07T04:34:05;7.90;;;6.47;;
75061;SDS011;63641;46.526;24.612;2022-12-07T04:36:31;7.55;;;6.70;;
75061;SDS011;63641;46.526;24.612;2022-12-07T04:38:58;7.38;;;6.60;;
75061;SDS011;63641;46.526;24.612;2022-12-07T04:41:25;7.30;;;6.60;;
75061;SDS011;63641;46.526;24.612;2022-12-07T04:43:57;7.20;;;5.32;;
75061;SDS011;63641;46.526;24.612;2022-12-07T04:46:25;6.28;;;5.63;;
75061;SDS011;63641;46.526;24.612;2022-12-07T04:48:53;6.18;;;5.68;;
75061;SDS011;63641;46.526;24.612;2022-12-07T04:51:22;6.22;;;5.63;;
75061;SDS011;63641;46.526;24.612;2022-12-07T04:53:50;6.68;;;6.07;;
75061;SDS011;63641;46.526;24.612;2022-12-07T04:56:17;7.07;;;6.22;;
75061;SDS011;63641;46.526;24.612;2022-12-07T04:58:45;6.78;;;6.15;;
75061;SDS011;63641;46.526;24.612;2022-12-07T05:01:14;6.55;;;5.90;;
75061;SDS011;63641;46.526;24.612;2022-12-07T05:03:41;8.35;;;7.10;;
75061;SDS011;63641;46.526;24.612;2022-12-07T05:06:08;10.65;;;8.32;;
75061;SDS011;63641;46.526;24.612;2022-12-07T05:08:39;11.50;;;7.93;;
75061;SDS011;63641;46.526;24.612;2022-12-07T05:11:06;8.13;;;7.22;;
75061;SDS011;63641;46.526;24.612;2022-12-07T05:13:34;7.82;;;6.97;;
75061;SDS011;63641;46.526;24.612;2022-12-07T05:16:02;7.95;;;6.38;;
75061;SDS011;63641;46.526;24.612;2022-12-07T05:18:29;7.32;;;6.55;;
75061;SDS011;63641;46.526;24.612;2022-12-07T05:20:55;7.32;;;6.57;;
75061;SDS011;63641;46.526;24.612;2022-12-07T05:23:22;8.88;;;6.30;;
75061;SDS011;63641;46.526;24.612;2022-12-07T05:25:49;7.38;;;6.25;;
75061;SDS011;63641;46.526;24.612;2022-12-07T05:28:16;7.00;;;6.30;;
75061;SDS011;63641;46.526;24.612;2022-12-07T05:30:43;7.03;;;6.32;;
75061;SDS011;63641;46.526;24.612;2022-12-07T05:33:10;7.25;;;6.38;;
75061;SDS011;63641;46.526;24.612;2022-12-07T05:35:36;8.45;;;7.47;;
75061;SDS011;63641;46.526;24.612;2022-12-07T05:38:04;15.52;;;10.52;;
75061;SDS011;63641;46.526;24.612;2022-12-07T05:40:30;10.95;;;9.80;;
75061;SDS011;63641;46.526;24.612;2022-12-07T05:42:57;11.48;;;9.60;;
75061;SDS011;63641;46.526;24.612;2022-12-07T05:45:30;11.35;;;9.93;;
75061;SDS011;63641;46.526;24.612;2022-12-07T05:47:57;11.90;;;10.30;;
75061;SDS011;63641;46.526;24.612;2022-12-07T05:50:23;14.18;;;12.57;;
75061;SDS011;63641;46.526;24.612;2022-12-07T05:52:50;13.15;;;11.60;;
75061;SDS011;63641;46.526;24.612;2022-12-07T05:55:17;10.07;;;9.02;;
75061;SDS011;63641;46.526;24.612;2022-12-07T05:57:44;9.27;;;8.15;;
75061;SDS011;63641;46.526;24.612;2022-12-07T06:00:31;9.98;;;8.68;;
75061;SDS011;63641;46.526;24.612;2022-12-07T06:02:58;8.82;;;8.00;;
75061;SDS011;63641;46.526;24.612;2022-12-07T06:05:25;8.75;;;7.85;;
75061;SDS011;63641;46.526;24.612;2022-12-07T06:07:52;8.57;;;7.68;;
75061;SDS011;63641;46.526;24.612;2022-12-07T06:10:19;11.15;;;10.05;;
75061;SDS011;63641;46.526;24.612;2022-12-07T06:12:45;10.30;;;9.05;;
75061;SDS011;63641;46.526;24.612;2022-12-07T06:15:12;11.52;;;9.95;;
75061;SDS011;63641;46.526;24.612;2022-12-07T06:17:39;17.33;;;14.13;;
75061;SDS011;63641;46.526;24.612;2022-12-07T06:20:07;15.00;;;10.98;;
75061;SDS011;63641;46.526;24.612;2022-12-07T06:22:34;10.60;;;9.02;;
75061;SDS011;63641;46.526;24.612;2022-12-07T06:25:00;10.45;;;9.35;;
75061;SDS011;63641;46.526;24.612;2022-12-07T06:27:33;12.25;;;9.80;;
75061;SDS011;63641;46.526;24.612;2022-12-07T06:30:02;12.98;;;10.93;;
75061;SDS011;63641;46.526;24.612;2022-12-07T06:32:33;14.50;;;11.63;;
75061;SDS011;63641;46.526;24.612;2022-12-07T06:35:00;13.00;;;10.88;;
75061;SDS011;63641;46.526;24.612;2022-12-07T06:37:27;12.93;;;11.23;;
75061;SDS011;63641;46.526;24.612;2022-12-07T06:39:53;11.77;;;9.30;;
75061;SDS011;63641;46.526;24.612;2022-12-07T06:42:20;11.63;;;9.98;;
75061;SDS011;63641;46.526;24.612;2022-12-07T06:44:47;11.27;;;9.40;;
75061;SDS011;63641;46.526;24.612;2022-12-07T06:47:14;12.90;;;9.70;;
75061;SDS011;63641;46.526;24.612;2022-12-07T06:50:00;10.40;;;9.00;;
75061;SDS011;63641;46.526;24.612;2022-12-07T06:52:28;10.32;;;9.02;;
75061;SDS011;63641;46.526;24.612;2022-12-07T06:54:54;11.18;;;9.60;;
75061;SDS011;63641;46.526;24.612;2022-12-07T06:57:21;9.48;;;8.38;;
75061;SDS011;63641;46.526;24.612;2022-12-07T06:59:48;10.48;;;9.13;;
75061;SDS011;63641;46.526;24.612;2022-12-07T07:02:15;11.85;;;9.95;;
75061;SDS011;63641;46.526;24.612;2022-12-07T07:04:42;11.25;;;9.00;;
75061;SDS011;63641;46.526;24.612;2022-12-07T07:07:09;10.57;;;9.43;;
75061;SDS011;63641;46.526;24.612;2022-12-07T07:09:36;10.57;;;8.93;;
75061;SDS011;63641;46.526;24.612;2022-12-07T07:12:03;10.85;;;8.85;;
75061;SDS011;63641;46.526;24.612;2022-12-07T07:14:29;11.82;;;9.88;;
75061;SDS011;63641;46.526;24.612;2022-12-07T07:16:56;10.07;;;9.05;;
75061;SDS011;63641;46.526;24.612;2022-12-07T07:19:23;10.93;;;8.80;;
75061;SDS011;63641;46.526;24.612;2022-12-07T07:21:50;9.88;;;8.27;;
75061;SDS011;63641;46.526;24.612;2022-12-07T07:24:16;10.70;;;8.93;;
75061;SDS011;63641;46.526;24.612;2022-12-07T07:26:43;10.73;;;8.95;;
75061;SDS011;63641;46.526;24.612;2022-12-07T07:29:10;10.73;;;9.52;;
75061;SDS011;63641;46.526;24.612;2022-12-07T07:31:36;11.85;;;9.30;;
75061;SDS011;63641;46.526;24.612;2022-12-07T07:34:04;11.20;;;9.63;;
75061;SDS011;63641;46.526;24.612;2022-12-07T07:36:30;11.80;;;9.88;;
75061;SDS011;63641;46.526;24.612;2022-12-07T07:38:58;10.95;;;9.35;;
75061;SDS011;63641;46.526;24.612;2022-12-07T07:41:25;12.40;;;10.23;;
75061;SDS011;63641;46.526;24.612;2022-12-07T07:43:52;13.20;;;10.00;;
75061;SDS011;63641;46.526;24.612;2022-12-07T07:46:19;12.75;;;10.43;;
75061;SDS011;63641;46.526;24.612;2022-12-07T07:48:46;11.38;;;10.18;;
75061;SDS011;63641;46.526;24.612;2022-12-07T07:51:13;11.88;;;9.52;;
75061;SDS011;63641;46.526;24.612;2022-12-07T07:53:40;11.98;;;10.77;;
75061;SDS011;63641;46.526;24.612;2022-12-07T07:56:07;10.73;;;9.63;;
75061;SDS011;63641;46.526;24.612;2022-12-07T07:58:34;11.02;;;9.73;;
75061;SDS011;63641;46.526;24.612;2022-12-07T08:01:04;11.40;;;9.73;;
75061;SDS011;63641;46.526;24.612;2022-12-07T08:03:32;12.13;;;10.90;;
75061;SDS011;63641;46.526;24.612;2022-12-07T08:05:59;10.27;;;8.15;;
75061;SDS011;63641;46.526;24.612;2022-12-07T08:08:26;12.45;;;9.95;;
75061;SDS011;63641;46.526;24.612;2022-12-07T08:10:52;12.70;;;10.23;;
75061;SDS011;63641;46.526;24.612;2022-12-07T08:13:19;12.55;;;10.38;;
75061;SDS011;63641;46.526;24.612;2022-12-07T08:15:52;9.73;;;8.73;;
75061;SDS011;63641;46.526;24.612;2022-12-07T08:18:19;10.90;;;9.27;;
75061;SDS011;63641;46.526;24.612;2022-12-07T08:20:46;10.52;;;9.02;;
75061;SDS011;63641;46.526;24.612;2022-12-07T08:23:13;10.77;;;9.32;;
75061;SDS011;63641;46.526;24.612;2022-12-07T08:25:39;8.93;;;8.02;;
75061;SDS011;63641;46.526;24.612;2022-12-07T08:28:06;11.73;;;9.63;;
75061;SDS011;63641;46.526;24.612;2022-12-07T08:30:33;13.63;;;9.73;;
75061;SDS011;63641;46.526;24.612;2022-12-07T08:33:00;10.40;;;8.55;;
75061;SDS011;63641;46.526;24.612;2022-12-07T08:35:27;9.80;;;8.80;;
75061;SDS011;63641;46.526;24.612;2022-12-07T08:37:53;10.23;;;9.15;;
75061;SDS011;63641;46.526;24.612;2022-12-07T08:40:20;10.15;;;8.93;;
75061;SDS011;63641;46.526;24.612;2022-12-07T08:42:50;9.68;;;8.32;;
75061;SDS011;63641;46.526;24.612;2022-12-07T08:45:18;10.02;;;8.50;;
75061;SDS011;63641;46.526;24.612;2022-12-07T08:47:53;11.00;;;9.18;;
75061;SDS011;63641;46.526;24.612;2022-12-07T08:50:25;9.55;;;8.55;;
75061;SDS011;63641;46.526;24.612;2022-12-07T08:52:52;10.32;;;8.52;;
75061;SDS011;63641;46.526;24.612;2022-12-07T08:55:21;9.18;;;8.27;;
75061;SDS011;63641;46.526;24.612;2022-12-07T08:57:48;8.32;;;7.43;;
75061;SDS011;63641;46.526;24.612;2022-12-07T09:00:16;9.60;;;7.70;;
75061;SDS011;63641;46.526;24.612;2022-12-07T09:02:43;9.70;;;8.25;;
75061;SDS011;63641;46.526;24.612;2022-12-07T09:05:11;8.25;;;7.45;;
75061;SDS011;63641;46.526;24.612;2022-12-07T09:07:43;7.97;;;7.18;;
75061;SDS011;63641;46.526;24.612;2022-12-07T09:10:12;6.80;;;6.20;;
75061;SDS011;63641;46.526;24.612;2022-12-07T09:12:39;7.95;;;7.05;;
75061;SDS011;63641;46.526;24.612;2022-12-07T09:15:06;7.55;;;6.30;;
75061;SDS011;63641;46.526;24.612;2022-12-07T09:17:34;7.57;;;6.72;;
75061;SDS011;63641;46.526;24.612;2022-12-07T09:20:03;6.63;;;5.93;;
75061;SDS011;63641;46.526;24.612;2022-12-07T09:22:32;7.00;;;6.32;;
75061;SDS011;63641;46.526;24.612;2022-12-07T09:24:59;7.00;;;6.10;;
75061;SDS011;63641;46.526;24.612;2022-12-07T09:27:27;6.95;;;6.25;;
75061;SDS011;63641;46.526;24.612;2022-12-07T09:29:54;7.38;;;6.68;;
75061;SDS011;63641;46.526;24.612;2022-12-07T09:32:22;6.60;;;5.90;;
75061;SDS011;63641;46.526;24.612;2022-12-07T09:34:49;6.38;;;5.65;;
75061;SDS011;63641;46.526;24.612;2022-12-07T09:37:16;6.70;;;6.00;;
75061;SDS011;63641;46.526;24.612;2022-12-07T09:39:43;6.30;;;5.70;;
75061;SDS011;63641;46.526;24.612;2022-12-07T09:42:37;6.70;;;6.07;;
75061;SDS011;63641;46.526;24.612;2022-12-07T09:45:06;6.82;;;6.13;;
75061;SDS011;63641;46.526;24.612;2022-12-07T09:47:38;6.90;;;5.15;;
75061;SDS011;63641;46.526;24.612;2022-12-07T09:50:12;6.55;;;5.82;;
75061;SDS011;63641;46.526;24.612;2022-12-07T09:52:43;7.13;;;6.43;;
75061;SDS011;63641;46.526;24.612;2022-12-07T09:55:12;6.30;;;5.72;;
75061;SDS011;63641;46.526;24.612;2022-12-07T09:57:41;6.85;;;6.05;;
75061;SDS011;63641;46.526;24.612;2022-12-07T10:00:13;7.40;;;6.53;;
75061;SDS011;63641;46.526;24.612;2022-12-07T10:02:58;6.65;;;5.97;;
75061;SDS011;63641;46.526;24.612;2022-12-07T10:08:03;5.53;;;5.03;;
75061;SDS011;63641;46.526;24.612;2022-12-07T10:10:31;5.65;;;5.07;;
75061;SDS011;63641;46.526;24.612;2022-12-07T10:23:29;5.55;;;4.20;;
75061;SDS011;63641;46.526;24.612;2022-12-07T10:25:57;5.15;;;4.65;;
75061;SDS011;63641;46.526;24.612;2022-12-07T10:28:27;4.60;;;4.10;;
75061;SDS011;63641;46.526;24.612;2022-12-07T10:31:20;5.68;;;4.45;;
75061;SDS011;63641;46.526;24.612;2022-12-07T10:33:56;5.50;;;4.82;;
75061;SDS011;63641;46.526;24.612;2022-12-07T10:36:35;5.28;;;4.68;;
75061;SDS011;63641;46.526;24.612;2022-12-07T10:39:14;5.35;;;4.85;;
75061;SDS011;63641;46.526;24.612;2022-12-07T10:44:28;6.35;;;5.75;;
75061;SDS011;63641;46.526;24.612;2022-12-07T10:55:25;5.80;;;5.20;;
75061;SDS011;63641;46.526;24.612;2022-12-07T11:03:30;6.40;;;5.80;;
75061;SDS011;63641;46.526;24.612;2022-12-07T11:15:28;6.05;;;5.45;;
75061;SDS011;63641;46.526;24.612;2022-12-07T11:18:06;6.43;;;5.82;;
75061;SDS011;63641;46.526;24.612;2022-12-07T11:20:53;6.25;;;5.57;;
75061;SDS011;63641;46.526;24.612;2022-12-07T11:23:36;6.57;;;5.93;;
75061;SDS011;63641;46.526;24.612;2022-12-07T11:35:41;8.00;;;7.20;;
75061;SDS011;63641;46.526;24.612;2022-12-07T11:38:09;8.00;;;7.03;;
75061;SDS011;63641;46.526;24.612;2022-12-07T11:40:54;7.75;;;7.03;;
75061;SDS011;63641;46.526;24.612;2022-12-07T11:47:16;7.65;;;6.88;;
75061;SDS011;63641;46.526;24.612;2022-12-07T11:52:22;7.80;;;7.00;;
75061;SDS011;63641;46.526;24.612;2022-12-07T11:54:53;8.80;;;7.93;;
75061;SDS011;63641;46.526;24.612;2022-12-07T11:57:25;8.32;;;7.50;;
75061;SDS011;63641;46.526;24.612;2022-12-07T12:00:01;8.40;;;7.35;;
75061;SDS011;63641;46.526;24.612;2022-12-07T12:02:37;8.73;;;7.25;;
75061;SDS011;63641;46.526;24.612;2022-12-07T12:05:20;8.50;;;7.53;;
75061;SDS011;63641;46.526;24.612;2022-12-07T12:08:04;8.60;;;7.70;;
75061;SDS011;63641;46.526;24.612;2022-12-07T12:11:21;8.50;;;7.55;;
75061;SDS011;63641;46.526;24.612;2022-12-07T12:22:44;8.13;;;6.82;;
75061;SDS011;63641;46.526;24.612;2022-12-07T12:25:22;9.15;;;7.45;;
75061;SDS011;63641;46.526;24.612;2022-12-07T12:33:56;9.32;;;8.43;;
75061;SDS011;63641;46.526;24.612;2022-12-07T12:36:43;8.80;;;7.53;;
75061;SDS011;63641;46.526;24.612;2022-12-07T12:46:45;10.60;;;8.52;;
75061;SDS011;63641;46.526;24.612;2022-12-07T12:51:49;9.93;;;8.73;;
75061;SDS011;63641;46.526;24.612;2022-12-07T12:56:49;9.52;;;8.48;;
75061;SDS011;63641;46.526;24.612;2022-12-07T13:13:04;9.63;;;8.25;;
75061;SDS011;63641;46.526;24.612;2022-12-07T13:15:35;9.43;;;8.40;;
75061;SDS011;63641;46.526;24.612;2022-12-07T13:18:22;8.55;;;7.40;;
75061;SDS011;63641;46.526;24.612;2022-12-07T13:20:51;9.82;;;8.30;;
75061;SDS011;63641;46.526;24.612;2022-12-07T13:34:48;8.98;;;7.75;;
75061;SDS011;63641;46.526;24.612;2022-12-07T13:37:25;10.88;;;8.35;;
75061;SDS011;63641;46.526;24.612;2022-12-07T13:40:16;8.98;;;8.05;;
75061;SDS011;63641;46.526;24.612;2022-12-07T13:42:59;8.35;;;7.18;;
75061;SDS011;63641;46.526;24.612;2022-12-07T13:45:28;9.18;;;7.95;;
75061;SDS011;63641;46.526;24.612;2022-12-07T13:51:00;8.18;;;7.35;;
75061;SDS011;63641;46.526;24.612;2022-12-07T13:53:29;8.40;;;7.50;;
75061;SDS011;63641;46.526;24.612;2022-12-07T13:55:59;8.63;;;7.10;;
75061;SDS011;63641;46.526;24.612;2022-12-07T13:58:29;8.57;;;7.70;;
75061;SDS011;63641;46.526;24.612;2022-12-07T14:00:57;8.27;;;7.40;;
75061;SDS011;63641;46.526;24.612;2022-12-07T14:03:27;7.68;;;6.88;;
75061;SDS011;63641;46.526;24.612;2022-12-07T14:06:03;8.15;;;7.00;;
75061;SDS011;63641;46.526;24.612;2022-12-07T14:08:42;7.72;;;6.93;;
75061;SDS011;63641;46.526;24.612;2022-12-07T14:11:16;7.68;;;6.53;;
75061;SDS011;63641;46.526;24.612;2022-12-07T14:13:58;10.25;;;7.05;;
75061;SDS011;63641;46.526;24.612;2022-12-07T14:16:34;9.68;;;7.43;;
75061;SDS011;63641;46.526;24.612;2022-12-07T14:19:04;7.72;;;6.93;;
75061;SDS011;63641;46.526;24.612;2022-12-07T14:21:33;7.78;;;6.57;;
75061;SDS011;63641;46.526;24.612;2022-12-07T14:24:17;8.85;;;7.90;;
75061;SDS011;63641;46.526;24.612;2022-12-07T14:26:47;7.75;;;6.95;;
75061;SDS011;63641;46.526;24.612;2022-12-07T14:31:51;9.75;;;6.97;;
75061;SDS011;63641;46.526;24.612;2022-12-07T14:34:22;11.10;;;7.60;;
75061;SDS011;63641;46.526;24.612;2022-12-07T14:36:49;9.38;;;6.53;;
75061;SDS011;63641;46.526;24.612;2022-12-07T14:39:16;11.30;;;6.63;;
75061;SDS011;63641;46.526;24.612;2022-12-07T14:41:43;7.85;;;6.63;;
75061;SDS011;63641;46.526;24.612;2022-12-07T14:44:20;8.20;;;7.03;;
75061;SDS011;63641;46.526;24.612;2022-12-07T14:46:54;7.72;;;6.93;;
75061;SDS011;63641;46.526;24.612;2022-12-07T14:49:41;8.10;;;7.07;;
75061;SDS011;63641;46.526;24.612;2022-12-07T14:52:17;10.50;;;7.47;;
75061;SDS011;63641;46.526;24.612;2022-12-07T14:55:19;10.63;;;8.98;;
75061;SDS011;63641;46.526;24.612;2022-12-07T14:57:49;8.18;;;7.13;;
75061;SDS011;63641;46.526;24.612;2022-12-07T15:00:17;8.57;;;6.82;;
75061;SDS011;63641;46.526;24.612;2022-12-07T15:02:46;10.15;;;7.53;;
75061;SDS011;63641;46.526;24.612;2022-12-07T15:05:13;10.88;;;9.45;;
75061;SDS011;63641;46.526;24.612;2022-12-07T15:07:42;17.33;;;12.02;;
75061;SDS011;63641;46.526;24.612;2022-12-07T15:10:15;15.05;;;11.63;;
75061;SDS011;63641;46.526;24.612;2022-12-07T15:12:49;19.05;;;14.65;;
75061;SDS011;63641;46.526;24.612;2022-12-07T15:15:16;17.85;;;14.32;;
75061;SDS011;63641;46.526;24.612;2022-12-07T15:17:43;19.00;;;14.70;;
75061;SDS011;63641;46.526;24.612;2022-12-07T15:20:14;18.15;;;13.90;;
75061;SDS011;63641;46.526;24.612;2022-12-07T15:22:45;19.50;;;14.75;;
75061;SDS011;63641;46.526;24.612;2022-12-07T15:25:13;23.80;;;18.02;;
75061;SDS011;63641;46.526;24.612;2022-12-07T15:27:40;22.42;;;16.45;;
75061;SDS011;63641;46.526;24.612;2022-12-07T15:30:08;23.48;;;16.83;;
75061;SDS011;63641;46.526;24.612;2022-12-07T15:32:35;24.00;;;17.52;;
75061;SDS011;63641;46.526;24.612;2022-12-07T15:35:01;24.60;;;17.10;;
75061;SDS011;63641;46.526;24.612;2022-12-07T15:37:29;20.20;;;15.60;;
75061;SDS011;63641;46.526;24.612;2022-12-07T15:39:56;28.33;;;20.38;;
75061;SDS011;63641;46.526;24.612;2022-12-07T15:42:27;25.58;;;17.65;;
75061;SDS011;63641;46.526;24.612;2022-12-07T15:44:54;30.10;;;22.60;;
75061;SDS011;63641;46.526;24.612;2022-12-07T15:47:31;20.42;;;13.30;;
75061;SDS011;63641;46.526;24.612;2022-12-07T15:50:20;24.88;;;14.07;;
75061;SDS011;63641;46.526;24.612;2022-12-07T15:52:47;26.20;;;18.48;;
75061;SDS011;63641;46.526;24.612;2022-12-07T15:55:17;42.38;;;27.98;;
75061;SDS011;63641;46.526;24.612;2022-12-07T15:57:43;32.33;;;22.23;;
75061;SDS011;63641;46.526;24.612;2022-12-07T16:00:10;26.92;;;19.20;;
75061;SDS011;63641;46.526;24.612;2022-12-07T16:02:38;23.45;;;17.13;;
75061;SDS011;63641;46.526;24.612;2022-12-07T16:05:05;20.85;;;15.32;;
75061;SDS011;63641;46.526;24.612;2022-12-07T16:07:32;23.30;;;17.73;;
75061;SDS011;63641;46.526;24.612;2022-12-07T16:09:59;18.27;;;13.50;;
75061;SDS011;63641;46.526;24.612;2022-12-07T16:12:26;18.67;;;14.50;;
75061;SDS011;63641;46.526;24.612;2022-12-07T16:14:52;16.55;;;14.10;;
75061;SDS011;63641;46.526;24.612;2022-12-07T16:17:22;16.63;;;12.65;;
75061;SDS011;63641;46.526;24.612;2022-12-07T16:19:49;18.30;;;13.25;;
75061;SDS011;63641;46.526;24.612;2022-12-07T16:22:16;16.48;;;12.18;;
75061;SDS011;63641;46.526;24.612;2022-12-07T16:24:44;15.55;;;11.13;;
75061;SDS011;63641;46.526;24.612;2022-12-07T16:27:10;12.95;;;10.85;;
75061;SDS011;63641;46.526;24.612;2022-12-07T16:29:37;15.38;;;11.70;;
75061;SDS011;63641;46.526;24.612;2022-12-07T16:32:04;19.90;;;14.70;;
75061;SDS011;63641;46.526;24.612;2022-12-07T16:34:31;15.70;;;12.48;;
75061;SDS011;63641;46.526;24.612;2022-12-07T16:36:58;15.57;;;11.25;;
75061;SDS011;63641;46.526;24.612;2022-12-07T16:39:30;14.70;;;11.82;;
75061;SDS011;63641;46.526;24.612;2022-12-07T16:41:58;16.15;;;13.88;;
75061;SDS011;63641;46.526;24.612;2022-12-07T16:44:24;24.25;;;18.63;;
75061;SDS011;63641;46.526;24.612;2022-12-07T16:46:52;23.35;;;17.10;;
75061;SDS011;63641;46.526;24.612;2022-12-07T16:49:19;27.92;;;21.17;;
75061;SDS011;63641;46.526;24.612;2022-12-07T16:51:49;24.23;;;18.67;;
75061;SDS011;63641;46.526;24.612;2022-12-07T16:54:36;44.33;;;28.35;;
75061;SDS011;63641;46.526;24.612;2022-12-07T16:57:03;36.30;;;25.48;;
75061;SDS011;63641;46.526;24.612;2022-12-07T16:59:30;46.58;;;30.83;;
75061;SDS011;63641;46.526;24.612;2022-12-07T17:01:57;49.70;;;32.75;;
75061;SDS011;63641;46.526;24.612;2022-12-07T17:04:24;43.92;;;30.90;;
75061;SDS011;63641;46.526;24.612;2022-12-07T17:06:51;47.38;;;30.33;;
75061;SDS011;63641;46.526;24.612;2022-12-07T17:09:18;36.60;;;25.27;;
75061;SDS011;63641;46.526;24.612;2022-12-07T17:11:46;35.38;;;25.00;;
75061;SDS011;63641;46.526;24.612;2022-12-07T17:14:14;33.22;;;23.83;;
75061;SDS011;63641;46.526;24.612;2022-12-07T17:16:59;37.95;;;23.98;;
75061;SDS011;63641;46.526;24.612;2022-12-07T17:19:28;32.40;;;22.50;;
75061;SDS011;63641;46.526;24.612;2022-12-07T17:21:55;27.15;;;21.75;;
75061;SDS011;63641;46.526;24.612;2022-12-07T17:24:21;29.65;;;19.85;;